sensor_id;sensor_type;location;lat;lon;timestamp;P1;durP1;ratioP1;P2;durP2;ratioP2
33162;SDS011;29282;45.656;11.302;2023-01-16T00:00:26;6.65;;;4.30;;
33162;SDS011;29282;45.656;11.302;2023-01-16T00:02:52;6.05;;;4.47;;
33162;SDS011;29282;45.656;11.302;2023-01-16T00:05:17;5.68;;;4.20;;
33162;SDS011;29282;45.656;11.302;2023-01-16T00:07:43;5.13;;;3.88;;
33162;SDS011;29282;45.656;11.302;2023-01-16T00:10:08;5.10;;;4.00;;
33162;SDS011;29282;45.656;11.302;2023-01-16T00:12:35;5.30;;;3.90;;
33162;SDS011;29282;45.656;11.302;2023-01-16T00:15:00;4.03;;;3.63;;
33162;SDS011;29282;45.656;11.302;2023-01-16T00:17:26;4.40;;;4.00;;
33162;SDS011;29282;45.656;11.302;2023-01-16T00:19:51;5.03;;;3.83;;
33162;SDS011;29282;45.656;11.302;2023-01-16T00:22:17;4.80;;;4.30;;
33162;SDS011;29282;45.656;11.302;2023-01-16T00:24:42;3.88;;;3.55;;
33162;SDS011;29282;45.656;11.302;2023-01-16T00:27:08;4.32;;;3.60;;
33162;SDS011;29282;45.656;11.302;2023-01-16T00:29:33;6.13;;;4.70;;
33162;SDS011;29282;45.656;11.302;2023-01-16T00:31:59;4.65;;;3.90;;
33162;SDS011;29282;45.656;11.302;2023-01-16T00:34:25;4.18;;;3.63;;
33162;SDS011;29282;45.656;11.302;2023-01-16T00:36:50;4.68;;;3.70;;
33162;SDS011;29282;45.656;11.302;2023-01-16T00:39:16;4.72;;;4.03;;
33162;SDS011;29282;45.656;11.302;2023-01-16T00:41:41;5.30;;;4.07;;
33162;SDS011;29282;45.656;11.302;2023-01-16T00:44:07;4.32;;;3.92;;
33162;SDS011;29282;45.656;11.302;2023-01-16T00:46:32;5.93;;;3.90;;
33162;SDS011;29282;45.656;11.302;2023-01-16T00:48:58;4.20;;;3.45;;
33162;SDS011;29282;45.656;11.302;2023-01-16T00:51:23;4.72;;;3.78;;
33162;SDS011;29282;45.656;11.302;2023-01-16T00:53:49;4.10;;;3.70;;
33162;SDS011;29282;45.656;11.302;2023-01-16T00:56:14;4.47;;;3.90;;
33162;SDS011;29282;45.656;11.302;2023-01-16T00:58:40;6.35;;;3.85;;
33162;SDS011;29282;45.656;11.302;2023-01-16T01:01:05;4.57;;;3.63;;
33162;SDS011;29282;45.656;11.302;2023-01-16T01:03:31;3.58;;;3.25;;
33162;SDS011;29282;45.656;11.302;2023-01-16T01:05:57;4.38;;;3.75;;
33162;SDS011;29282;45.656;11.302;2023-01-16T01:08:23;4.00;;;3.60;;
33162;SDS011;29282;45.656;11.302;2023-01-16T01:10:49;4.70;;;4.10;;
33162;SDS011;29282;45.656;11.302;2023-01-16T01:13:14;4.72;;;3.92;;
33162;SDS011;29282;45.656;11.302;2023-01-16T01:15:40;4.45;;;3.60;;
33162;SDS011;29282;45.656;11.302;2023-01-16T01:18:05;3.55;;;3.25;;
33162;SDS011;29282;45.656;11.302;2023-01-16T01:20:31;4.10;;;3.70;;
33162;SDS011;29282;45.656;11.302;2023-01-16T01:22:57;3.85;;;3.20;;
33162;SDS011;29282;45.656;11.302;2023-01-16T01:25:23;3.45;;;3.15;;
33162;SDS011;29282;45.656;11.302;2023-01-16T01:27:49;4.43;;;3.72;;
33162;SDS011;29282;45.656;11.302;2023-01-16T01:30:15;3.47;;;3.17;;
33162;SDS011;29282;45.656;11.302;2023-01-16T01:32:40;3.90;;;3.50;;
33162;SDS011;29282;45.656;11.302;2023-01-16T01:35:06;4.20;;;3.80;;
33162;SDS011;29282;45.656;11.302;2023-01-16T01:37:33;5.03;;;3.60;;
33162;SDS011;29282;45.656;11.302;2023-01-16T01:40:00;3.50;;;3.17;;
33162;SDS011;29282;45.656;11.302;2023-01-16T01:42:25;7.45;;;3.40;;
33162;SDS011;29282;45.656;11.302;2023-01-16T01:45:14;3.50;;;3.20;;
33162;SDS011;29282;45.656;11.302;2023-01-16T01:58:19;3.97;;;3.50;;
33162;SDS011;29282;45.656;11.302;2023-01-16T02:00:52;4.78;;;3.25;;
33162;SDS011;29282;45.656;11.302;2023-01-16T02:03:26;4.15;;;3.70;;
33162;SDS011;29282;45.656;11.302;2023-01-16T02:06:05;4.55;;;3.88;;
33162;SDS011;29282;45.656;11.302;2023-01-16T02:08:34;3.83;;;3.40;;
33162;SDS011;29282;45.656;11.302;2023-01-16T02:13:29;4.30;;;3.42;;
33162;SDS011;29282;45.656;11.302;2023-01-16T02:15:55;4.28;;;3.55;;
33162;SDS011;29282;45.656;11.302;2023-01-16T02:18:40;4.15;;;3.42;;
33162;SDS011;29282;45.656;11.302;2023-01-16T02:22:09;4.63;;;3.53;;
33162;SDS011;29282;45.656;11.302;2023-01-16T02:30:02;4.30;;;3.80;;
33162;SDS011;29282;45.656;11.302;2023-01-16T02:35:32;4.00;;;3.60;;
33162;SDS011;29282;45.656;11.302;2023-01-16T02:38:00;3.50;;;3.10;;
33162;SDS011;29282;45.656;11.302;2023-01-16T02:43:31;5.32;;;3.72;;
33162;SDS011;29282;45.656;11.302;2023-01-16T02:48:34;3.45;;;3.15;;
33162;SDS011;29282;45.656;11.302;2023-01-16T02:54:08;3.78;;;3.40;;
33162;SDS011;29282;45.656;11.302;2023-01-16T02:57:21;4.47;;;3.40;;
33162;SDS011;29282;45.656;11.302;2023-01-16T02:59:43;6.57;;;3.85;;
33162;SDS011;29282;45.656;11.302;2023-01-16T03:02:09;4.03;;;3.65;;
33162;SDS011;29282;45.656;11.302;2023-01-16T03:24:03;4.10;;;3.03;;
33162;SDS011;29282;45.656;11.302;2023-01-16T03:26:48;3.20;;;2.90;;
33162;SDS011;29282;45.656;11.302;2023-01-16T03:29:18;3.47;;;3.17;;
33162;SDS011;29282;45.656;11.302;2023-01-16T03:31:49;4.30;;;3.40;;
33162;SDS011;29282;45.656;11.302;2023-01-16T03:34:22;4.18;;;3.15;;
33162;SDS011;29282;45.656;11.302;2023-01-16T03:39:37;3.55;;;3.22;;
33162;SDS011;29282;45.656;11.302;2023-01-16T03:42:09;3.42;;;3.13;;
33162;SDS011;29282;45.656;11.302;2023-01-16T03:44:45;3.95;;;3.42;;
33162;SDS011;29282;45.656;11.302;2023-01-16T03:47:17;4.65;;;3.55;;
33162;SDS011;29282;45.656;11.302;2023-01-16T03:49:50;3.70;;;3.40;;
33162;SDS011;29282;45.656;11.302;2023-01-16T03:52:24;4.00;;;3.45;;
33162;SDS011;29282;45.656;11.302;2023-01-16T03:57:40;4.28;;;3.53;;
33162;SDS011;29282;45.656;11.302;2023-01-16T04:00:18;3.30;;;3.00;;
33162;SDS011;29282;45.656;11.302;2023-01-16T04:03:04;3.17;;;2.88;;
33162;SDS011;29282;45.656;11.302;2023-01-16T04:05:47;3.60;;;2.97;;
33162;SDS011;29282;45.656;11.302;2023-01-16T04:08:19;3.60;;;3.30;;
33162;SDS011;29282;45.656;11.302;2023-01-16T04:10:50;3.60;;;3.30;;
33162;SDS011;29282;45.656;11.302;2023-01-16T04:13:19;3.55;;;3.25;;
33162;SDS011;29282;45.656;11.302;2023-01-16T04:15:51;3.40;;;3.10;;
33162;SDS011;29282;45.656;11.302;2023-01-16T04:18:20;3.67;;;3.13;;
33162;SDS011;29282;45.656;11.302;2023-01-16T04:20:50;3.92;;;3.40;;
33162;SDS011;29282;45.656;11.302;2023-01-16T04:23:16;3.10;;;2.80;;
33162;SDS011;29282;45.656;11.302;2023-01-16T04:25:42;3.00;;;2.80;;
33162;SDS011;29282;45.656;11.302;2023-01-16T04:28:09;3.88;;;3.25;;
33162;SDS011;29282;45.656;11.302;2023-01-16T04:30:35;3.13;;;2.83;;
33162;SDS011;29282;45.656;11.302;2023-01-16T04:33:01;3.20;;;2.90;;
33162;SDS011;29282;45.656;11.302;2023-01-16T04:35:27;3.42;;;3.13;;
33162;SDS011;29282;45.656;11.302;2023-01-16T04:37:53;3.25;;;2.95;;
33162;SDS011;29282;45.656;11.302;2023-01-16T04:40:18;3.35;;;3.05;;
33162;SDS011;29282;45.656;11.302;2023-01-16T04:42:44;3.47;;;3.08;;
33162;SDS011;29282;45.656;11.302;2023-01-16T04:45:09;3.97;;;3.25;;
33162;SDS011;29282;45.656;11.302;2023-01-16T04:47:35;3.17;;;2.88;;
33162;SDS011;29282;45.656;11.302;2023-01-16T04:50:01;3.97;;;3.42;;
33162;SDS011;29282;45.656;11.302;2023-01-16T04:52:26;6.43;;;4.10;;
33162;SDS011;29282;45.656;11.302;2023-01-16T04:54:52;8.65;;;5.40;;
33162;SDS011;29282;45.656;11.302;2023-01-16T04:57:17;6.18;;;4.57;;
33162;SDS011;29282;45.656;11.302;2023-01-16T04:59:43;8.27;;;5.25;;
33162;SDS011;29282;45.656;11.302;2023-01-16T05:02:08;5.97;;;4.30;;
33162;SDS011;29282;45.656;11.302;2023-01-16T05:04:34;8.70;;;4.30;;
33162;SDS011;29282;45.656;11.302;2023-01-16T05:06:59;7.28;;;4.72;;
33162;SDS011;29282;45.656;11.302;2023-01-16T05:09:25;7.45;;;4.22;;
33162;SDS011;29282;45.656;11.302;2023-01-16T05:11:50;6.55;;;4.15;;
33162;SDS011;29282;45.656;11.302;2023-01-16T05:14:16;7.47;;;4.38;;
33162;SDS011;29282;45.656;11.302;2023-01-16T05:16:41;7.60;;;4.60;;
33162;SDS011;29282;45.656;11.302;2023-01-16T05:19:07;8.02;;;4.70;;
33162;SDS011;29282;45.656;11.302;2023-01-16T05:21:32;7.43;;;3.88;;
33162;SDS011;29282;45.656;11.302;2023-01-16T05:23:58;7.82;;;4.50;;
33162;SDS011;29282;45.656;11.302;2023-01-16T05:26:23;17.70;;;4.60;;
33162;SDS011;29282;45.656;11.302;2023-01-16T05:28:49;6.70;;;4.28;;
33162;SDS011;29282;45.656;11.302;2023-01-16T05:31:14;9.20;;;4.70;;
33162;SDS011;29282;45.656;11.302;2023-01-16T05:33:40;12.55;;;4.60;;
33162;SDS011;29282;45.656;11.302;2023-01-16T05:36:05;8.13;;;4.30;;
33162;SDS011;29282;45.656;11.302;2023-01-16T05:38:31;7.03;;;4.38;;
33162;SDS011;29282;45.656;11.302;2023-01-16T05:40:56;10.77;;;4.18;;
33162;SDS011;29282;45.656;11.302;2023-01-16T05:43:22;7.55;;;4.28;;
33162;SDS011;29282;45.656;11.302;2023-01-16T05:45:47;6.32;;;4.03;;
33162;SDS011;29282;45.656;11.302;2023-01-16T05:48:13;5.85;;;4.03;;
33162;SDS011;29282;45.656;11.302;2023-01-16T05:50:38;5.75;;;3.92;;
33162;SDS011;29282;45.656;11.302;2023-01-16T05:53:04;5.35;;;3.55;;
33162;SDS011;29282;45.656;11.302;2023-01-16T05:55:30;8.30;;;3.95;;
33162;SDS011;29282;45.656;11.302;2023-01-16T05:57:55;6.28;;;4.00;;
33162;SDS011;29282;45.656;11.302;2023-01-16T06:00:21;6.75;;;3.95;;
33162;SDS011;29282;45.656;11.302;2023-01-16T06:02:47;8.30;;;3.80;;
33162;SDS011;29282;45.656;11.302;2023-01-16T06:05:13;7.78;;;4.03;;
33162;SDS011;29282;45.656;11.302;2023-01-16T06:07:39;6.68;;;3.80;;
33162;SDS011;29282;45.656;11.302;2023-01-16T06:10:07;6.00;;;3.75;;
33162;SDS011;29282;45.656;11.302;2023-01-16T06:12:33;6.78;;;3.75;;
33162;SDS011;29282;45.656;11.302;2023-01-16T06:14:59;5.43;;;3.75;;
33162;SDS011;29282;45.656;11.302;2023-01-16T06:17:24;4.20;;;3.38;;
33162;SDS011;29282;45.656;11.302;2023-01-16T06:19:50;5.55;;;3.63;;
33162;SDS011;29282;45.656;11.302;2023-01-16T06:22:15;5.13;;;3.88;;
33162;SDS011;29282;45.656;11.302;2023-01-16T06:24:41;5.93;;;3.30;;
33162;SDS011;29282;45.656;11.302;2023-01-16T06:27:06;5.43;;;3.13;;
33162;SDS011;29282;45.656;11.302;2023-01-16T06:29:32;6.03;;;3.55;;
33162;SDS011;29282;45.656;11.302;2023-01-16T06:31:58;7.13;;;3.42;;
33162;SDS011;29282;45.656;11.302;2023-01-16T06:34:23;4.97;;;3.20;;
33162;SDS011;29282;45.656;11.302;2023-01-16T06:36:49;6.25;;;3.47;;
33162;SDS011;29282;45.656;11.302;2023-01-16T06:39:15;8.15;;;3.60;;
33162;SDS011;29282;45.656;11.302;2023-01-16T06:41:41;7.28;;;3.40;;
33162;SDS011;29282;45.656;11.302;2023-01-16T06:44:07;6.28;;;3.10;;
33162;SDS011;29282;45.656;11.302;2023-01-16T06:46:32;5.07;;;3.15;;
33162;SDS011;29282;45.656;11.302;2023-01-16T06:48:58;7.28;;;3.40;;
33162;SDS011;29282;45.656;11.302;2023-01-16T06:51:23;6.60;;;3.65;;
33162;SDS011;29282;45.656;11.302;2023-01-16T06:53:49;5.22;;;3.40;;
33162;SDS011;29282;45.656;11.302;2023-01-16T06:56:14;5.43;;;3.58;;
33162;SDS011;29282;45.656;11.302;2023-01-16T06:58:40;6.72;;;3.53;;
33162;SDS011;29282;45.656;11.302;2023-01-16T07:01:05;6.63;;;3.28;;
33162;SDS011;29282;45.656;11.302;2023-01-16T07:03:31;8.00;;;3.40;;
33162;SDS011;29282;45.656;11.302;2023-01-16T07:05:57;6.35;;;3.30;;
33162;SDS011;29282;45.656;11.302;2023-01-16T07:08:23;5.72;;;3.53;;
33162;SDS011;29282;45.656;11.302;2023-01-16T07:10:49;7.28;;;3.88;;
33162;SDS011;29282;45.656;11.302;2023-01-16T07:13:14;9.90;;;3.75;;
33162;SDS011;29282;45.656;11.302;2023-01-16T07:15:41;6.00;;;3.50;;
33162;SDS011;29282;45.656;11.302;2023-01-16T07:18:30;4.82;;;3.35;;
33162;SDS011;29282;45.656;11.302;2023-01-16T07:21:14;5.43;;;3.13;;
33162;SDS011;29282;45.656;11.302;2023-01-16T07:24:08;5.70;;;3.47;;
33162;SDS011;29282;45.656;11.302;2023-01-16T07:26:38;4.47;;;3.00;;
33162;SDS011;29282;45.656;11.302;2023-01-16T07:29:07;6.43;;;3.47;;
33162;SDS011;29282;45.656;11.302;2023-01-16T07:31:32;7.70;;;3.40;;
33162;SDS011;29282;45.656;11.302;2023-01-16T07:33:58;4.60;;;3.20;;
33162;SDS011;29282;45.656;11.302;2023-01-16T07:36:24;5.93;;;3.33;;
33162;SDS011;29282;45.656;11.302;2023-01-16T07:38:50;6.90;;;3.33;;
33162;SDS011;29282;45.656;11.302;2023-01-16T07:41:15;4.43;;;3.28;;
33162;SDS011;29282;45.656;11.302;2023-01-16T07:43:41;10.70;;;3.15;;
33162;SDS011;29282;45.656;11.302;2023-01-16T07:46:06;10.70;;;3.40;;
33162;SDS011;29282;45.656;11.302;2023-01-16T07:48:32;8.93;;;4.00;;
33162;SDS011;29282;45.656;11.302;2023-01-16T07:50:58;7.90;;;3.35;;
33162;SDS011;29282;45.656;11.302;2023-01-16T07:53:25;6.28;;;3.47;;
33162;SDS011;29282;45.656;11.302;2023-01-16T07:55:53;7.35;;;3.08;;
33162;SDS011;29282;45.656;11.302;2023-01-16T07:58:21;9.95;;;3.30;;
33162;SDS011;29282;45.656;11.302;2023-01-16T08:00:47;5.75;;;3.65;;
33162;SDS011;29282;45.656;11.302;2023-01-16T08:03:14;7.85;;;3.38;;
33162;SDS011;29282;45.656;11.302;2023-01-16T08:05:40;5.70;;;3.20;;
33162;SDS011;29282;45.656;11.302;2023-01-16T08:08:08;7.90;;;3.75;;
33162;SDS011;29282;45.656;11.302;2023-01-16T08:10:34;9.25;;;3.42;;
33162;SDS011;29282;45.656;11.302;2023-01-16T08:12:59;6.00;;;3.20;;
33162;SDS011;29282;45.656;11.302;2023-01-16T08:15:25;5.63;;;3.42;;
33162;SDS011;29282;45.656;11.302;2023-01-16T08:17:51;9.88;;;3.40;;
33162;SDS011;29282;45.656;11.302;2023-01-16T08:20:16;6.78;;;3.70;;
33162;SDS011;29282;45.656;11.302;2023-01-16T08:22:43;9.48;;;3.75;;
33162;SDS011;29282;45.656;11.302;2023-01-16T08:25:12;12.18;;;3.60;;
33162;SDS011;29282;45.656;11.302;2023-01-16T08:27:38;6.28;;;3.03;;
33162;SDS011;29282;45.656;11.302;2023-01-16T08:30:07;5.13;;;3.40;;
33162;SDS011;29282;45.656;11.302;2023-01-16T08:32:33;9.65;;;3.35;;
33162;SDS011;29282;45.656;11.302;2023-01-16T08:34:59;5.88;;;3.08;;
33162;SDS011;29282;45.656;11.302;2023-01-16T08:37:24;3.45;;;3.08;;
33162;SDS011;29282;45.656;11.302;2023-01-16T08:39:50;8.55;;;3.45;;
33162;SDS011;29282;45.656;11.302;2023-01-16T08:42:15;4.68;;;3.20;;
33162;SDS011;29282;45.656;11.302;2023-01-16T08:44:59;3.97;;;2.97;;
33162;SDS011;29282;45.656;11.302;2023-01-16T08:47:43;5.00;;;3.00;;
33162;SDS011;29282;45.656;11.302;2023-01-16T08:50:27;3.75;;;3.00;;
33162;SDS011;29282;45.656;11.302;2023-01-16T08:53:12;5.88;;;2.92;;
33162;SDS011;29282;45.656;11.302;2023-01-16T08:55:37;6.80;;;3.35;;
33162;SDS011;29282;45.656;11.302;2023-01-16T08:58:06;3.30;;;2.83;;
33162;SDS011;29282;45.656;11.302;2023-01-16T09:00:31;4.53;;;2.80;;
33162;SDS011;29282;45.656;11.302;2023-01-16T09:02:58;5.10;;;2.70;;
33162;SDS011;29282;45.656;11.302;2023-01-16T09:05:26;7.95;;;3.15;;
33162;SDS011;29282;45.656;11.302;2023-01-16T09:07:52;7.30;;;3.20;;
33162;SDS011;29282;45.656;11.302;2023-01-16T09:10:17;3.13;;;2.50;;
33162;SDS011;29282;45.656;11.302;2023-01-16T09:12:43;3.78;;;2.75;;
33162;SDS011;29282;45.656;11.302;2023-01-16T09:15:27;3.77;;;3.17;;
33162;SDS011;29282;45.656;11.302;2023-01-16T09:17:54;6.15;;;2.97;;
33162;SDS011;29282;45.656;11.302;2023-01-16T09:20:19;5.45;;;2.70;;
33162;SDS011;29282;45.656;11.302;2023-01-16T09:22:45;3.30;;;2.95;;
33162;SDS011;29282;45.656;11.302;2023-01-16T09:25:11;4.00;;;2.58;;
33162;SDS011;29282;45.656;11.302;2023-01-16T09:27:36;3.97;;;2.90;;
33162;SDS011;29282;45.656;11.302;2023-01-16T09:30:02;4.55;;;2.67;;
33162;SDS011;29282;45.656;11.302;2023-01-16T09:32:28;3.92;;;2.65;;
33162;SDS011;29282;45.656;11.302;2023-01-16T09:34:53;3.17;;;2.60;;
33162;SDS011;29282;45.656;11.302;2023-01-16T09:37:19;3.47;;;2.75;;
33162;SDS011;29282;45.656;11.302;2023-01-16T09:39:44;3.95;;;2.70;;
33162;SDS011;29282;45.656;11.302;2023-01-16T09:44:54;3.92;;;2.63;;
33162;SDS011;29282;45.656;11.302;2023-01-16T09:47:26;2.92;;;2.60;;
33162;SDS011;29282;45.656;11.302;2023-01-16T09:52:23;3.55;;;2.50;;
33162;SDS011;29282;45.656;11.302;2023-01-16T09:55:16;3.42;;;2.40;;
33162;SDS011;29282;45.656;11.302;2023-01-16T09:58:09;4.45;;;2.58;;
33162;SDS011;29282;45.656;11.302;2023-01-16T10:00:58;6.57;;;2.83;;
33162;SDS011;29282;45.656;11.302;2023-01-16T10:03:24;4.88;;;2.58;;
33162;SDS011;29282;45.656;11.302;2023-01-16T10:05:58;2.83;;;2.42;;
33162;SDS011;29282;45.656;11.302;2023-01-16T10:09:16;3.28;;;2.53;;
33162;SDS011;29282;45.656;11.302;2023-01-16T10:11:59;3.67;;;2.30;;
33162;SDS011;29282;45.656;11.302;2023-01-16T10:23:06;5.82;;;2.67;;
33162;SDS011;29282;45.656;11.302;2023-01-16T10:25:43;3.88;;;2.70;;
33162;SDS011;29282;45.656;11.302;2023-01-16T10:30:50;3.55;;;2.35;;
33162;SDS011;29282;45.656;11.302;2023-01-16T10:34:21;2.83;;;2.47;;
33162;SDS011;29282;45.656;11.302;2023-01-16T10:36:27;4.15;;;2.60;;
33162;SDS011;29282;45.656;11.302;2023-01-16T10:38:58;4.70;;;2.83;;
33162;SDS011;29282;45.656;11.302;2023-01-16T10:41:29;7.85;;;3.15;;
33162;SDS011;29282;45.656;11.302;2023-01-16T10:47:02;4.15;;;2.90;;
33162;SDS011;29282;45.656;11.302;2023-01-16T10:49:47;3.30;;;2.78;;
33162;SDS011;29282;45.656;11.302;2023-01-16T10:52:12;4.18;;;2.92;;
33162;SDS011;29282;45.656;11.302;2023-01-16T10:54:38;4.18;;;2.40;;
33162;SDS011;29282;45.656;11.302;2023-01-16T10:57:09;3.97;;;2.90;;
33162;SDS011;29282;45.656;11.302;2023-01-16T10:59:40;4.65;;;2.78;;
33162;SDS011;29282;45.656;11.302;2023-01-16T11:02:13;5.78;;;2.70;;
33162;SDS011;29282;45.656;11.302;2023-01-16T11:04:49;4.30;;;3.00;;
33162;SDS011;29282;45.656;11.302;2023-01-16T11:07:15;4.25;;;2.78;;
33162;SDS011;29282;45.656;11.302;2023-01-16T11:09:45;4.53;;;3.05;;
33162;SDS011;29282;45.656;11.302;2023-01-16T11:12:21;3.22;;;2.78;;
33162;SDS011;29282;45.656;11.302;2023-01-16T11:15:17;4.28;;;2.50;;
33162;SDS011;29282;45.656;11.302;2023-01-16T11:18:17;3.00;;;2.70;;
33162;SDS011;29282;45.656;11.302;2023-01-16T11:21:14;4.05;;;2.60;;
33162;SDS011;29282;45.656;11.302;2023-01-16T11:23:52;4.32;;;3.00;;
33162;SDS011;29282;45.656;11.302;2023-01-16T11:26:25;3.53;;;2.70;;
33162;SDS011;29282;45.656;11.302;2023-01-16T11:28:52;5.68;;;2.90;;
33162;SDS011;29282;45.656;11.302;2023-01-16T11:31:21;3.15;;;2.67;;
33162;SDS011;29282;45.656;11.302;2023-01-16T11:33:51;3.33;;;2.83;;
33162;SDS011;29282;45.656;11.302;2023-01-16T11:36:23;5.07;;;2.80;;
33162;SDS011;29282;45.656;11.302;2023-01-16T11:38:49;3.92;;;2.38;;
33162;SDS011;29282;45.656;11.302;2023-01-16T11:41:20;2.70;;;2.50;;
33162;SDS011;29282;45.656;11.302;2023-01-16T11:44:08;3.00;;;2.70;;
33162;SDS011;29282;45.656;11.302;2023-01-16T11:47:01;3.42;;;2.50;;
33162;SDS011;29282;45.656;11.302;2023-01-16T11:49:49;5.32;;;2.80;;
33162;SDS011;29282;45.656;11.302;2023-01-16T11:52:15;5.60;;;2.90;;
33162;SDS011;29282;45.656;11.302;2023-01-16T12:16:24;4.20;;;2.47;;
33162;SDS011;29282;45.656;11.302;2023-01-16T12:21:46;3.55;;;2.60;;
33162;SDS011;29282;45.656;11.302;2023-01-16T12:38:19;3.42;;;2.40;;
33162;SDS011;29282;45.656;11.302;2023-01-16T12:49:35;2.97;;;2.53;;
33162;SDS011;29282;45.656;11.302;2023-01-16T12:59:45;5.15;;;2.90;;
33162;SDS011;29282;45.656;11.302;2023-01-16T13:05:31;6.13;;;3.20;;
33162;SDS011;29282;45.656;11.302;2023-01-16T13:08:21;6.15;;;3.10;;
33162;SDS011;29282;45.656;11.302;2023-01-16T13:10:50;7.68;;;3.30;;
33162;SDS011;29282;45.656;11.302;2023-01-16T13:13:37;5.28;;;3.00;;
33162;SDS011;29282;45.656;11.302;2023-01-16T13:16:37;10.40;;;3.72;;
33162;SDS011;29282;45.656;11.302;2023-01-16T13:19:20;7.63;;;3.45;;
33162;SDS011;29282;45.656;11.302;2023-01-16T13:24:23;9.27;;;2.70;;
33162;SDS011;29282;45.656;11.302;2023-01-16T13:27:00;7.93;;;3.38;;
33162;SDS011;29282;45.656;11.302;2023-01-16T13:30:12;9.02;;;3.30;;
33162;SDS011;29282;45.656;11.302;2023-01-16T13:32:34;5.63;;;3.05;;
33162;SDS011;29282;45.656;11.302;2023-01-16T13:41:15;6.35;;;3.08;;
33162;SDS011;29282;45.656;11.302;2023-01-16T13:43:49;10.70;;;3.85;;
33162;SDS011;29282;45.656;11.302;2023-01-16T13:46:43;6.20;;;2.75;;
33162;SDS011;29282;45.656;11.302;2023-01-16T13:49:20;6.88;;;3.20;;
33162;SDS011;29282;45.656;11.302;2023-01-16T13:51:48;6.63;;;2.80;;
33162;SDS011;29282;45.656;11.302;2023-01-16T13:54:19;6.93;;;3.30;;
33162;SDS011;29282;45.656;11.302;2023-01-16T13:56:59;10.65;;;3.20;;
33162;SDS011;29282;45.656;11.302;2023-01-16T13:59:44;7.95;;;2.95;;
33162;SDS011;29282;45.656;11.302;2023-01-16T14:15:55;5.07;;;2.63;;
33162;SDS011;29282;45.656;11.302;2023-01-16T14:18:43;4.55;;;2.60;;
33162;SDS011;29282;45.656;11.302;2023-01-16T14:21:28;6.90;;;2.97;;
33162;SDS011;29282;45.656;11.302;2023-01-16T14:24:05;4.85;;;2.92;;
33162;SDS011;29282;45.656;11.302;2023-01-16T14:34:20;5.30;;;2.70;;
33162;SDS011;29282;45.656;11.302;2023-01-16T14:36:49;3.92;;;2.63;;
33162;SDS011;29282;45.656;11.302;2023-01-16T14:39:25;5.82;;;2.42;;
33162;SDS011;29282;45.656;11.302;2023-01-16T14:41:52;6.20;;;3.15;;
33162;SDS011;29282;45.656;11.302;2023-01-16T14:44:59;5.82;;;2.65;;
33162;SDS011;29282;45.656;11.302;2023-01-16T14:47:52;4.47;;;2.55;;
33162;SDS011;29282;45.656;11.302;2023-01-16T14:53:50;6.05;;;2.63;;
33162;SDS011;29282;45.656;11.302;2023-01-16T14:56:43;4.40;;;2.20;;
33162;SDS011;29282;45.656;11.302;2023-01-16T15:01:53;3.58;;;2.30;;
33162;SDS011;29282;45.656;11.302;2023-01-16T15:07:18;3.13;;;2.45;;
33162;SDS011;29282;45.656;11.302;2023-01-16T15:09:48;6.13;;;2.70;;
33162;SDS011;29282;45.656;11.302;2023-01-16T15:12:16;5.30;;;2.38;;
33162;SDS011;29282;45.656;11.302;2023-01-16T15:14:51;4.65;;;2.60;;
33162;SDS011;29282;45.656;11.302;2023-01-16T15:20:26;4.78;;;2.45;;
33162;SDS011;29282;45.656;11.302;2023-01-16T15:23:17;6.28;;;2.45;;
33162;SDS011;29282;45.656;11.302;2023-01-16T15:31:29;5.25;;;2.88;;
33162;SDS011;29282;45.656;11.302;2023-01-16T15:36:42;4.50;;;2.25;;
33162;SDS011;29282;45.656;11.302;2023-01-16T15:39:15;3.50;;;2.10;;
33162;SDS011;29282;45.656;11.302;2023-01-16T15:44:33;5.53;;;2.33;;
33162;SDS011;29282;45.656;11.302;2023-01-16T15:53:02;4.03;;;2.40;;
33162;SDS011;29282;45.656;11.302;2023-01-16T15:55:29;5.57;;;2.65;;
33162;SDS011;29282;45.656;11.302;2023-01-16T15:58:02;5.57;;;2.58;;
33162;SDS011;29282;45.656;11.302;2023-01-16T16:02:58;3.70;;;2.42;;
33162;SDS011;29282;45.656;11.302;2023-01-16T16:05:26;4.85;;;2.42;;
33162;SDS011;29282;45.656;11.302;2023-01-16T16:07:53;5.93;;;2.38;;
33162;SDS011;29282;45.656;11.302;2023-01-16T16:10:19;2.58;;;1.98;;
33162;SDS011;29282;45.656;11.302;2023-01-16T16:13:05;4.88;;;2.47;;
33162;SDS011;29282;45.656;11.302;2023-01-16T16:15:31;3.40;;;2.20;;
33162;SDS011;29282;45.656;11.302;2023-01-16T16:18:16;3.45;;;2.25;;
33162;SDS011;29282;45.656;11.302;2023-01-16T16:20:46;5.40;;;3.08;;
33162;SDS011;29282;45.656;11.302;2023-01-16T16:23:17;6.32;;;2.47;;
33162;SDS011;29282;45.656;11.302;2023-01-16T16:25:54;4.20;;;2.30;;
33162;SDS011;29282;45.656;11.302;2023-01-16T16:28:27;3.17;;;2.33;;
33162;SDS011;29282;45.656;11.302;2023-01-16T16:31:00;6.95;;;2.20;;
33162;SDS011;29282;45.656;11.302;2023-01-16T16:33:30;3.78;;;2.30;;
33162;SDS011;29282;45.656;11.302;2023-01-16T16:35:58;4.72;;;2.17;;
33162;SDS011;29282;45.656;11.302;2023-01-16T16:38:47;3.55;;;2.25;;
33162;SDS011;29282;45.656;11.302;2023-01-16T16:44:23;3.50;;;2.30;;
33162;SDS011;29282;45.656;11.302;2023-01-16T16:46:59;5.45;;;2.35;;
33162;SDS011;29282;45.656;11.302;2023-01-16T16:49:26;2.88;;;2.42;;
33162;SDS011;29282;45.656;11.302;2023-01-16T16:51:53;4.38;;;2.20;;
33162;SDS011;29282;45.656;11.302;2023-01-16T16:54:19;3.70;;;2.20;;
33162;SDS011;29282;45.656;11.302;2023-01-16T16:56:54;4.20;;;1.95;;
33162;SDS011;29282;45.656;11.302;2023-01-16T16:59:24;3.25;;;2.15;;
33162;SDS011;29282;45.656;11.302;2023-01-16T17:01:55;5.00;;;2.25;;
33162;SDS011;29282;45.656;11.302;2023-01-16T17:04:28;6.50;;;2.13;;
33162;SDS011;29282;45.656;11.302;2023-01-16T17:06:54;4.85;;;2.13;;
33162;SDS011;29282;45.656;11.302;2023-01-16T17:09:20;4.18;;;2.30;;
33162;SDS011;29282;45.656;11.302;2023-01-16T17:11:45;2.70;;;2.00;;
33162;SDS011;29282;45.656;11.302;2023-01-16T17:14:11;2.85;;;1.88;;
33162;SDS011;29282;45.656;11.302;2023-01-16T17:16:37;2.90;;;2.00;;
33162;SDS011;29282;45.656;11.302;2023-01-16T17:19:06;5.22;;;2.50;;
33162;SDS011;29282;45.656;11.302;2023-01-16T17:21:46;5.05;;;2.80;;
33162;SDS011;29282;45.656;11.302;2023-01-16T17:24:16;3.05;;;2.20;;
33162;SDS011;29282;45.656;11.302;2023-01-16T17:26:42;5.38;;;2.28;;
33162;SDS011;29282;45.656;11.302;2023-01-16T17:29:08;4.68;;;2.38;;
33162;SDS011;29282;45.656;11.302;2023-01-16T17:31:37;3.30;;;2.20;;
33162;SDS011;29282;45.656;11.302;2023-01-16T17:34:04;3.30;;;2.15;;
33162;SDS011;29282;45.656;11.302;2023-01-16T17:36:30;3.20;;;2.13;;
33162;SDS011;29282;45.656;11.302;2023-01-16T17:38:57;4.15;;;2.50;;
33162;SDS011;29282;45.656;11.302;2023-01-16T17:41:24;2.97;;;2.00;;
33162;SDS011;29282;45.656;11.302;2023-01-16T17:43:57;4.30;;;2.08;;
33162;SDS011;29282;45.656;11.302;2023-01-16T17:46:41;4.93;;;2.47;;
33162;SDS011;29282;45.656;11.302;2023-01-16T17:49:07;2.78;;;2.00;;
33162;SDS011;29282;45.656;11.302;2023-01-16T17:51:32;5.40;;;2.53;;
33162;SDS011;29282;45.656;11.302;2023-01-16T17:53:58;3.13;;;2.50;;
33162;SDS011;29282;45.656;11.302;2023-01-16T17:56:24;3.65;;;2.00;;
33162;SDS011;29282;45.656;11.302;2023-01-16T17:58:50;4.75;;;2.47;;
33162;SDS011;29282;45.656;11.302;2023-01-16T18:01:29;3.33;;;2.30;;
33162;SDS011;29282;45.656;11.302;2023-01-16T18:04:01;2.97;;;2.28;;
33162;SDS011;29282;45.656;11.302;2023-01-16T18:06:31;3.72;;;2.10;;
33162;SDS011;29282;45.656;11.302;2023-01-16T18:08:58;4.10;;;2.53;;
33162;SDS011;29282;45.656;11.302;2023-01-16T18:11:24;2.92;;;2.20;;